createdAt,value
2019-05-09T00:08:08.000Z,54.8
2019-05-09T00:28:08.000Z,54.8
2019-05-09T00:38:08.000Z,53.7
2019-05-09T00:48:09.000Z,53.6
2019-05-09T00:58:08.000Z,53.2
2019-05-09T01:08:08.000Z,53.3
2019-05-09T01:18:08.000Z,52.9
2019-05-09T01:28:08.000Z,52.9
2019-05-09T01:38:08.000Z,52.8
2019-05-09T01:48:08.000Z,52.9
2019-05-09T01:58:08.000Z,53.1
2019-05-09T02:08:10.000Z,52.9
2019-05-09T02:18:08.000Z,52.8
2019-05-09T02:28:08.000Z,52.8
2019-05-09T02:38:08.000Z,52.9
2019-05-09T02:58:08.000Z,52.7
2019-05-09T03:08:08.000Z,52.7
2019-05-09T03:18:08.000Z,52.4
2019-05-09T03:28:08.000Z,52.3
2019-05-09T03:38:08.000Z,52
2019-05-09T03:48:09.000Z,52.1
2019-05-09T03:58:09.000Z,52.2
2019-05-09T04:08:09.000Z,52.1
2019-05-09T04:18:09.000Z,51.9
2019-05-09T04:28:09.000Z,51.3
2019-05-09T04:38:09.000Z,51.4
2019-05-09T04:48:09.000Z,51.3
2019-05-09T04:58:09.000Z,51.1
2019-05-09T05:08:11.000Z,50.8
2019-05-09T05:18:09.000Z,50.5
2019-05-09T05:28:10.000Z,50.1
2019-05-09T05:38:09.000Z,50.2
2019-05-09T05:48:09.000Z,52.3
2019-05-09T05:58:09.000Z,54.9
2019-05-09T06:08:09.000Z,55.2
2019-05-09T06:18:09.000Z,55.5
2019-05-09T06:28:09.000Z,55.6
2019-05-09T06:38:09.000Z,56.4
2019-05-09T06:48:09.000Z,56
2019-05-09T06:58:10.000Z,55.1
2019-05-09T07:08:09.000Z,56.5
2019-05-09T07:18:09.000Z,57.5
2019-05-09T07:28:09.000Z,58
2019-05-09T07:48:09.000Z,58.2
2019-05-09T07:58:09.000Z,58.6
2019-05-09T08:08:10.000Z,58.5
2019-05-09T08:18:09.000Z,58.7
2019-05-09T08:28:09.000Z,58.4
2019-05-09T08:38:09.000Z,59.4
2019-05-09T08:48:09.000Z,60.7
2019-05-09T08:58:09.000Z,62
2019-05-09T09:08:09.000Z,63.1
2019-05-09T09:18:09.000Z,63.2
2019-05-09T09:28:09.000Z,64.7
2019-05-09T09:38:09.000Z,65.3
2019-05-09T09:48:09.000Z,65.1
2019-05-09T09:58:12.000Z,66.6
2019-05-09T10:08:09.000Z,66.8
2019-05-09T10:18:09.000Z,66.6
2019-05-09T10:28:11.000Z,65.7
2019-05-09T10:38:09.000Z,65.3
2019-05-09T10:48:12.000Z,64.6
2019-05-09T10:58:10.000Z,63.1
2019-05-09T11:08:11.000Z,63.7
2019-05-09T11:18:11.000Z,63.3
2019-05-09T11:28:10.000Z,62.9
2019-05-09T11:38:12.000Z,62.6
2019-05-09T11:48:10.000Z,62.8
2019-05-09T11:58:10.000Z,62.7
2019-05-09T12:08:12.000Z,62.5
2019-05-09T12:18:10.000Z,61.8
2019-05-09T12:28:10.000Z,61.4
2019-05-09T12:38:10.000Z,60.3
2019-05-09T12:48:10.000Z,59.5
2019-05-09T12:58:10.000Z,59.4
2019-05-09T13:08:10.000Z,59.3
2019-05-09T13:18:10.000Z,58.3
2019-05-09T13:28:10.000Z,58
2019-05-09T13:38:10.000Z,57.9
2019-05-09T13:48:10.000Z,57.9
2019-05-09T13:58:10.000Z,58.3
2019-05-09T14:08:10.000Z,58
2019-05-09T14:18:10.000Z,57.4
2019-05-09T14:28:10.000Z,57.3
2019-05-09T14:48:13.000Z,57.1
2019-05-09T14:58:10.000Z,55.9
2019-05-09T15:08:10.000Z,55.2
2019-05-09T15:18:10.000Z,55
2019-05-09T15:28:10.000Z,54.7
2019-05-09T15:38:10.000Z,53.6
2019-05-09T15:48:10.000Z,53.3
2019-05-09T15:58:10.000Z,53.3
2019-05-09T16:08:10.000Z,54.3
2019-05-09T16:18:11.000Z,54.7
2019-05-09T16:28:10.000Z,55.5
2019-05-09T16:38:10.000Z,55.1
2019-05-09T16:48:10.000Z,55.8
2019-05-09T16:58:12.000Z,55.9
2019-05-09T17:08:10.000Z,55.8
2019-05-09T17:18:10.000Z,54.8
2019-05-09T17:28:11.000Z,54.4
2019-05-09T17:38:11.000Z,53.9
2019-05-09T17:48:13.000Z,53.6
2019-05-09T17:58:12.000Z,53.4
2019-05-09T18:08:11.000Z,52.6
2019-05-09T18:18:11.000Z,52
2019-05-09T18:28:11.000Z,51.7
2019-05-09T18:38:12.000Z,51.2
2019-05-09T18:48:11.000Z,50.8
2019-05-09T18:58:11.000Z,50.6
2019-05-09T19:08:12.000Z,50.3
2019-05-09T19:18:11.000Z,50.4
2019-05-09T19:28:11.000Z,50.6
2019-05-09T19:38:11.000Z,50.6
2019-05-09T19:58:11.000Z,50.3
2019-05-09T20:08:11.000Z,50.4
2019-05-09T20:18:11.000Z,50.1
2019-05-09T20:28:11.000Z,50.3
2019-05-09T20:38:11.000Z,50.5
2019-05-09T20:48:11.000Z,50.6
2019-05-09T20:58:11.000Z,50.4
2019-05-09T21:08:11.000Z,50.2
2019-05-09T21:18:11.000Z,50.1
2019-05-09T21:28:12.000Z,50
2019-05-09T21:38:11.000Z,50.1
2019-05-09T21:48:13.000Z,51
2019-05-09T21:58:11.000Z,52.4
2019-05-09T22:08:11.000Z,48.7
2019-05-09T22:18:11.000Z,47.7
2019-05-09T22:38:11.000Z,47.1
2019-05-09T22:48:11.000Z,47.9
2019-05-09T22:58:11.000Z,48.1
2019-05-09T23:08:11.000Z,48.9
2019-05-09T23:18:11.000Z,49.4
2019-05-09T23:28:11.000Z,49.9
2019-05-09T23:38:13.000Z,50.4
2019-05-09T23:48:11.000Z,50.8
2019-05-09T23:58:11.000Z,51.2
